Time;durP1;ratioP1;P1;durP2;ratioP2;P2;SDS_P1;SDS_P2;PMS_P1;PMS_P2;Temp;Humidity;BMP_temperature;BMP_pressure;BME280_temperature;BME280_humidity;BME280_pressure;Samples;Min_cycle;Max_cycle;Signal;HPM_P1;HPM_P2
2021/01/09 04:08:13;;;;;;;13.10;11.70;;;2.70;99.90;;;;;;5811977;23;20239;-81
2021/01/09 04:10:39;;;;;;;14.02;12.00;;;2.70;99.90;;;;;;5017005;28;20192;-80
2021/01/09 04:13:04;;;;;;;14.00;12.07;;;2.70;99.90;;;;;;5035085;28;20212;-79
2021/01/09 04:15:30;;;;;;;14.65;12.95;;;2.70;99.90;;;;;;5017497;28;20657;-80
2021/01/09 04:17:56;;;;;;;15.02;12.45;;;2.70;99.90;;;;;;5036193;28;20716;-79
2021/01/09 04:20:21;;;;;;;13.98;12.07;;;2.70;99.90;;;;;;5037191;28;20172;-76
2021/01/09 04:22:47;;;;;;;14.50;12.85;;;2.60;99.90;;;;;;5054751;28;20208;-75
2021/01/09 04:25:13;;;;;;;13.70;12.25;;;2.70;99.90;;;;;;5036733;28;20188;-75
2021/01/09 04:27:38;;;;;;;15.20;13.48;;;2.60;99.90;;;;;;5054732;28;20251;-75
2021/01/09 04:30:05;;;;;;;14.10;12.60;;;2.70;99.90;;;;;;5055441;28;20183;-75
2021/01/09 04:32:32;;;;;;;16.27;12.93;;;2.60;99.90;;;;;;5054737;28;20179;-80
2021/01/09 04:34:58;;;;;;;16.13;13.40;;;2.70;99.90;;;;;;5036905;28;20254;-80
2021/01/09 04:37:24;;;;;;;14.15;12.00;;;2.60;99.90;;;;;;5054680;28;20246;-80
2021/01/09 04:39:50;;;;;;;15.63;13.23;;;2.60;99.90;;;;;;5054333;28;20729;-80
2021/01/09 04:42:16;;;;;;;14.75;13.15;;;2.60;99.90;;;;;;5054557;28;20203;-80
2021/01/09 04:44:42;;;;;;;15.75;13.75;;;2.70;99.90;;;;;;5036707;28;20565;-80
2021/01/09 04:47:08;;;;;;;14.43;12.95;;;2.60;99.90;;;;;;5054096;28;20172;-79
2021/01/09 04:49:34;;;;;;;15.52;13.27;;;2.70;99.90;;;;;;5054287;28;20192;-80
2021/01/09 04:52:02;;;;;;;16.20;14.20;;;2.60;99.90;;;;;;5036701;28;20212;-79
2021/01/09 04:54:30;;;;;;;15.13;13.52;;;2.60;99.90;;;;;;5053910;28;20199;-80
2021/01/09 04:56:56;;;;;;;17.92;14.82;;;2.70;99.90;;;;;;5036447;28;20172;-80
2021/01/09 04:59:24;;;;;;;16.55;14.68;;;2.70;99.90;;;;;;5053984;28;20693;-80
2021/01/09 05:01:51;;;;;;;18.20;15.18;;;2.70;99.90;;;;;;5054217;28;20638;-80
2021/01/09 05:04:19;;;;;;;15.73;13.35;;;2.70;99.90;;;;;;5054039;28;20305;-79
2021/01/09 05:06:46;;;;;;;16.23;14.48;;;2.70;99.90;;;;;;5054207;28;20168;-80
2021/01/09 05:09:14;;;;;;;15.70;13.98;;;2.70;99.90;;;;;;5053737;28;20322;-79
2021/01/09 05:11:41;;;;;;;16.13;14.43;;;2.70;99.90;;;;;;5054363;28;20175;-80
2021/01/09 05:14:07;;;;;;;18.00;15.63;;;2.70;99.90;;;;;;5036058;28;20544;-80
2021/01/09 05:16:34;;;;;;;17.58;14.18;;;2.70;99.90;;;;;;5054345;28;20171;-79
2021/01/09 05:19:00;;;;;;;17.73;14.48;;;2.60;99.90;;;;;;5053728;28;20223;-79
2021/01/09 05:21:28;;;;;;;17.58;15.23;;;2.70;99.90;;;;;;5054116;28;20315;-79
2021/01/09 05:23:59;;;;;;;16.58;13.43;;;2.70;99.90;;;;;;5053378;28;20211;-79
2021/01/09 05:26:25;;;;;;;16.65;13.85;;;2.60;99.90;;;;;;5053823;28;20167;-79
2021/01/09 05:28:53;;;;;;;16.95;14.45;;;2.70;99.90;;;;;;5053720;28;20673;-80
2021/01/09 05:31:20;;;;;;;16.05;14.35;;;2.60;99.90;;;;;;5035868;28;20175;-79
2021/01/09 05:33:47;;;;;;;16.08;14.35;;;2.60;99.90;;;;;;5053729;28;20180;-80
2021/01/09 05:36:13;;;;;;;15.60;13.68;;;2.60;99.90;;;;;;5035782;28;20259;-79
2021/01/09 05:38:40;;;;;;;15.98;14.23;;;2.60;99.90;;;;;;5053254;28;20620;-74
2021/01/09 05:41:12;;;;;;;17.58;15.15;;;2.60;99.90;;;;;;5035577;28;20576;-74
2021/01/09 05:43:38;;;;;;;15.77;14.18;;;2.60;99.90;;;;;;5035503;28;20570;-75
2021/01/09 05:46:05;;;;;;;15.23;13.63;;;2.60;99.90;;;;;;5053252;28;20622;-74
2021/01/09 05:48:33;;;;;;;17.30;14.85;;;2.70;99.90;;;;;;5035475;28;20200;-74
2021/01/09 05:51:03;;;;;;;16.20;14.50;;;2.70;99.90;;;;;;5053318;28;20200;-74
2021/01/09 05:53:46;;;;;;;18.08;15.48;;;2.70;99.90;;;;;;5052897;28;20687;-74
2021/01/09 05:56:14;;;;;;;17.27;14.32;;;2.70;99.90;;;;;;5053260;28;20174;-74
2021/01/09 05:58:40;;;;;;;16.65;13.63;;;2.70;99.90;;;;;;5052754;28;20192;-74
2021/01/09 06:01:11;;;;;;;15.90;14.13;;;2.70;99.90;;;;;;5052661;28;20199;-74
2021/01/09 06:03:44;;;;;;;15.95;14.25;;;2.70;99.90;;;;;;5035105;28;20580;-75
2021/01/09 06:06:31;;;;;;;17.88;14.82;;;2.60;99.90;;;;;;5035016;28;20221;-74
2021/01/09 06:09:05;;;;;;;18.48;14.93;;;2.70;99.90;;;;;;5052562;28;20713;-75
2021/01/09 06:11:42;;;;;;;20.60;15.93;;;2.60;99.90;;;;;;5052917;28;20664;-74
2021/01/09 06:14:10;;;;;;;15.85;13.73;;;2.60;99.90;;;;;;5053294;28;20657;-74
2021/01/09 06:16:38;;;;;;;16.08;14.48;;;2.70;99.90;;;;;;5052664;28;20199;-74
2021/01/09 06:19:04;;;;;;;16.90;15.05;;;2.60;99.90;;;;;;5052853;28;20190;-74
2021/01/09 06:21:31;;;;;;;16.80;14.98;;;2.70;99.90;;;;;;5052702;28;20290;-74
2021/01/09 06:23:58;;;;;;;17.33;15.02;;;2.60;99.90;;;;;;5034357;28;20323;-74
2021/01/09 06:26:26;;;;;;;16.77;14.98;;;2.60;99.90;;;;;;5034707;28;20202;-75
2021/01/09 06:29:00;;;;;;;18.17;15.80;;;2.60;99.90;;;;;;5034654;28;20239;-74
2021/01/09 06:31:28;;;;;;;18.95;15.23;;;2.60;99.90;;;;;;5034650;28;20171;-74
2021/01/09 06:33:55;;;;;;;17.13;14.95;;;2.60;99.90;;;;;;5052538;28;20681;-74
2021/01/09 06:36:23;;;;;;;16.85;14.63;;;2.60;99.90;;;;;;5052508;28;20242;-74
2021/01/09 06:38:55;;;;;;;18.50;15.25;;;2.60;99.90;;;;;;5034226;28;20202;-74
2021/01/09 06:41:22;;;;;;;16.98;15.15;;;2.60;99.90;;;;;;5052382;28;20163;-74
2021/01/09 06:43:50;;;;;;;16.75;14.93;;;2.60;99.90;;;;;;5052187;28;20333;-74
2021/01/09 06:46:27;;;;;;;18.80;15.77;;;2.60;99.90;;;;;;5034543;28;20179;-74
2021/01/09 06:48:53;;;;;;;17.88;15.85;;;2.60;99.90;;;;;;5052341;28;20191;-74
2021/01/09 06:51:34;;;;;;;18.30;15.88;;;2.60;99.90;;;;;;5034473;28;20172;-75
2021/01/09 06:54:15;;;;;;;19.23;14.95;;;2.60;99.90;;;;;;5033973;28;20199;-74
2021/01/09 06:57:08;;;;;;;17.58;15.43;;;2.50;99.90;;;;;;5052127;28;20645;-74
2021/01/09 06:59:38;;;;;;;17.48;14.85;;;2.60;99.90;;;;;;5034296;28;20202;-73
2021/01/09 07:02:27;;;;;;;17.23;15.15;;;2.60;99.90;;;;;;5052040;28;20242;-73
2021/01/09 07:05:18;;;;;;;17.98;16.05;;;2.60;99.90;;;;;;5052075;28;20554;-73
2021/01/09 07:08:01;;;;;;;16.05;14.30;;;2.60;99.90;;;;;;5051744;28;20229;-73
2021/01/09 07:10:28;;;;;;;18.00;15.18;;;2.60;99.90;;;;;;5051726;28;20199;-73
2021/01/09 07:13:04;;;;;;;16.77;14.98;;;2.70;99.90;;;;;;5052403;28;20166;-73
2021/01/09 07:15:34;;;;;;;17.25;15.15;;;2.70;99.90;;;;;;5051957;28;20214;-73
2021/01/09 07:18:02;;;;;;;16.20;14.32;;;2.70;99.90;;;;;;5052023;28;20198;-73
2021/01/09 07:20:38;;;;;;;17.65;15.63;;;2.70;99.90;;;;;;5034303;28;20179;-73
2021/01/09 07:23:11;;;;;;;16.75;14.90;;;2.70;99.90;;;;;;5051382;28;20203;-73
2021/01/09 07:25:43;;;;;;;18.17;16.05;;;2.70;99.90;;;;;;5034417;28;20249;-73
2021/01/09 07:28:10;;;;;;;16.42;14.73;;;2.70;99.90;;;;;;5033832;28;20187;-73
2021/01/09 07:30:36;;;;;;;17.60;15.25;;;2.70;99.90;;;;;;5034046;28;20182;-73
2021/01/09 07:33:01;;;;;;;19.58;15.85;;;2.70;99.90;;;;;;5051870;28;20188;-73
2021/01/09 07:35:32;;;;;;;18.02;16.13;;;2.70;99.90;;;;;;5051751;28;20172;-73
2021/01/09 07:38:03;;;;;;;17.67;14.77;;;2.80;99.90;;;;;;5051307;28;20188;-73
2021/01/09 07:40:44;;;;;;;18.23;15.52;;;2.70;99.90;;;;;;5033773;28;20297;-73
2021/01/09 07:43:38;;;;;;;19.35;16.27;;;2.70;99.90;;;;;;5051737;28;20572;-73
2021/01/09 07:46:23;;;;;;;17.52;15.63;;;2.70;99.90;;;;;;5031762;28;20180;-73
2021/01/09 07:48:50;;;;;;;18.83;15.98;;;2.80;99.90;;;;;;5051432;28;20211;-73
2021/01/09 07:51:19;;;;;;;17.92;16.02;;;2.70;99.90;;;;;;5051454;28;20175;-73
2021/01/09 07:53:47;;;;;;;20.42;16.63;;;2.70;99.90;;;;;;5033121;28;20191;-73
2021/01/09 07:56:36;;;;;;;18.88;16.60;;;2.70;99.90;;;;;;5051353;28;20176;-73
2021/01/09 07:59:03;;;;;;;20.10;16.63;;;2.70;99.90;;;;;;5042065;28;20204;-73
2021/01/09 08:01:28;;;;;;;19.33;16.27;;;2.70;99.90;;;;;;5033467;28;20672;-73
2021/01/09 08:03:55;;;;;;;17.92;16.02;;;2.70;99.90;;;;;;5051306;28;20239;-73
2021/01/09 08:06:21;;;;;;;19.15;16.15;;;2.60;99.90;;;;;;5051425;28;20171;-73
2021/01/09 08:08:53;;;;;;;17.73;15.85;;;2.70;99.90;;;;;;5050827;28;20251;-73
2021/01/09 08:11:18;;;;;;;19.27;16.20;;;2.80;99.90;;;;;;5051267;28;20172;-73
2021/01/09 08:13:44;;;;;;;20.75;17.55;;;2.70;99.90;;;;;;5051102;28;20192;-73
2021/01/09 08:16:10;;;;;;;18.15;16.25;;;2.70;99.90;;;;;;5033295;28;20180;-73
2021/01/09 08:18:35;;;;;;;23.83;18.25;;;2.80;99.90;;;;;;5033279;28;20192;-73
2021/01/09 08:21:01;;;;;;;20.25;16.80;;;2.70;99.90;;;;;;5051016;28;20186;-73
2021/01/09 08:23:28;;;;;;;20.77;18.58;;;2.70;99.90;;;;;;5052834;28;20215;-73
2021/01/09 08:25:54;;;;;;;21.27;18.52;;;2.80;99.90;;;;;;5036702;28;20512;-73
2021/01/09 08:28:20;;;;;;;21.77;18.38;;;2.70;99.90;;;;;;5054681;28;20191;-73
2021/01/09 08:30:46;;;;;;;20.55;18.08;;;2.80;99.90;;;;;;5054917;28;20190;-73
2021/01/09 08:33:16;;;;;;;21.38;17.75;;;2.70;99.90;;;;;;5054433;28;20195;-73
2021/01/09 08:35:49;;;;;;;21.98;18.15;;;2.80;99.90;;;;;;5054432;28;20530;-73
2021/01/09 08:38:15;;;;;;;20.80;18.25;;;2.80;99.90;;;;;;5054125;28;20192;-73
2021/01/09 08:40:42;;;;;;;18.65;16.05;;;2.80;99.90;;;;;;5036501;28;20176;-73
2021/01/09 08:43:10;;;;;;;19.20;16.48;;;2.90;99.90;;;;;;5036320;28;20293;-73
2021/01/09 08:45:48;;;;;;;20.88;17.90;;;2.90;99.90;;;;;;5036510;28;20282;-73
2021/01/09 08:48:15;;;;;;;20.35;16.92;;;2.90;99.90;;;;;;5054329;28;20195;-73
2021/01/09 08:51:01;;;;;;;20.65;17.75;;;3.00;99.90;;;;;;5036414;28;20168;-73
2021/01/09 08:53:33;;;;;;;19.65;17.40;;;3.00;99.90;;;;;;5035551;28;20200;-73
2021/01/09 08:56:04;;;;;;;21.15;17.85;;;2.90;99.90;;;;;;5054460;28;20172;-73
2021/01/09 08:58:34;;;;;;;21.35;16.80;;;2.90;99.90;;;;;;5036311;28;20677;-73
2021/01/09 09:01:03;;;;;;;19.70;16.85;;;2.90;99.90;;;;;;5054290;28;20634;-73
2021/01/09 09:03:31;;;;;;;20.60;18.08;;;2.90;99.90;;;;;;5054073;28;20219;-73
2021/01/09 09:05:57;;;;;;;20.90;18.25;;;2.90;99.90;;;;;;5054208;28;20681;-73
2021/01/09 09:08:27;;;;;;;20.73;17.75;;;2.90;99.90;;;;;;5053415;28;20243;-73
2021/01/09 09:10:54;;;;;;;20.63;18.42;;;2.90;99.90;;;;;;5036342;28;20542;-73
2021/01/09 09:13:24;;;;;;;19.35;17.23;;;2.90;99.90;;;;;;5053971;28;20184;-73
2021/01/09 09:15:51;;;;;;;21.40;18.20;;;3.00;99.90;;;;;;5054052;28;20175;-74
2021/01/09 09:18:17;;;;;;;22.05;19.02;;;3.00;99.90;;;;;;5053869;28;20261;-74
2021/01/09 09:20:51;;;;;;;21.00;18.30;;;3.00;99.90;;;;;;5053819;28;20213;-73
2021/01/09 09:23:18;;;;;;;21.77;18.80;;;3.00;99.90;;;;;;5035458;28;20226;-74
2021/01/09 09:25:44;;;;;;;21.02;18.73;;;3.00;99.90;;;;;;5053837;28;20168;-73
2021/01/09 09:28:10;;;;;;;22.25;19.08;;;3.00;99.90;;;;;;5035683;28;20737;-74
2021/01/09 09:30:36;;;;;;;19.77;17.38;;;3.10;99.90;;;;;;5053643;28;20247;-73
2021/01/09 09:33:14;;;;;;;22.15;18.98;;;3.10;99.90;;;;;;5053659;28;20801;-73
2021/01/09 09:35:41;;;;;;;23.83;20.23;;;3.10;99.90;;;;;;5053664;28;20301;-74
2021/01/09 09:38:10;;;;;;;25.35;20.50;;;3.10;99.90;;;;;;5053187;28;20723;-73
2021/01/09 09:40:37;;;;;;;21.83;19.10;;;3.10;99.90;;;;;;5053738;28;20172;-73
2021/01/09 09:43:14;;;;;;;26.05;19.63;;;3.10;99.90;;;;;;5053251;28;20268;-74
2021/01/09 09:45:53;;;;;;;21.63;17.35;;;3.10;99.90;;;;;;5053562;28;20168;-73
2021/01/09 09:48:19;;;;;;;23.25;20.08;;;3.10;99.90;;;;;;5053313;28;20191;-73
2021/01/09 09:50:44;;;;;;;22.33;18.92;;;3.20;99.90;;;;;;5053440;28;20164;-73
2021/01/09 09:53:10;;;;;;;21.30;18.55;;;3.10;99.90;;;;;;5053009;28;20657;-74
2021/01/09 09:55:36;;;;;;;22.08;19.13;;;3.20;99.90;;;;;;5035310;28;20711;-74
2021/01/09 09:58:05;;;;;;;22.42;18.95;;;3.20;99.90;;;;;;5053103;28;20605;-74
2021/01/09 10:00:31;;;;;;;23.83;19.98;;;3.20;99.90;;;;;;5053056;28;20251;-73
2021/01/09 10:02:57;;;;;;;23.05;20.25;;;3.20;99.90;;;;;;5053134;28;20243;-74
2021/01/09 10:05:24;;;;;;;20.42;18.20;;;3.20;99.90;;;;;;5053126;28;20633;-73
2021/01/09 10:07:50;;;;;;;23.50;20.20;;;3.20;99.90;;;;;;5035164;28;20172;-73
2021/01/09 10:10:17;;;;;;;23.45;19.95;;;3.20;99.90;;;;;;5052256;28;20215;-73
2021/01/09 10:12:55;;;;;;;23.65;19.67;;;3.20;99.90;;;;;;5052885;28;20710;-73
2021/01/09 10:15:21;;;;;;;23.00;18.98;;;3.20;99.90;;;;;;5052763;28;20176;-73
2021/01/09 10:17:57;;;;;;;21.48;19.17;;;3.20;99.90;;;;;;5052848;28;20176;-73
2021/01/09 10:20:23;;;;;;;24.42;20.50;;;3.30;99.90;;;;;;5034782;28;20179;-73
2021/01/09 10:22:49;;;;;;;25.65;20.30;;;3.20;99.90;;;;;;5034760;28;20254;-73
2021/01/09 10:25:14;;;;;;;23.75;20.30;;;3.30;99.90;;;;;;5052121;28;20642;-73
2021/01/09 10:27:40;;;;;;;22.65;19.83;;;3.30;99.90;;;;;;5052533;28;20174;-73
2021/01/09 10:30:07;;;;;;;22.10;18.80;;;3.30;99.90;;;;;;5052505;28;20186;-73
2021/01/09 10:32:32;;;;;;;24.10;20.63;;;3.30;99.90;;;;;;5052573;28;20168;-73
2021/01/09 10:34:58;;;;;;;22.05;19.52;;;3.30;99.90;;;;;;5052482;28;20218;-73
2021/01/09 10:37:24;;;;;;;22.33;19.58;;;3.30;99.90;;;;;;5052493;28;20233;-73
2021/01/09 10:39:50;;;;;;;21.45;18.70;;;3.40;99.90;;;;;;5034082;28;20685;-73
2021/01/09 10:42:15;;;;;;;21.77;18.70;;;3.40;99.90;;;;;;5052361;28;20203;-73
2021/01/09 10:44:41;;;;;;;26.35;19.05;;;3.40;99.90;;;;;;5034512;28;20230;-73
2021/01/09 10:47:07;;;;;;;22.27;19.50;;;3.40;99.90;;;;;;5052029;28;20184;-73
2021/01/09 10:49:33;;;;;;;22.48;18.70;;;3.40;99.90;;;;;;5034565;28;20545;-74
2021/01/09 10:51:59;;;;;;;20.27;18.08;;;3.40;99.90;;;;;;5052041;28;20622;-74
2021/01/09 10:54:26;;;;;;;23.80;19.42;;;3.40;99.90;;;;;;5034144;28;20202;-74
2021/01/09 10:56:52;;;;;;;21.35;18.33;;;3.40;99.90;;;;;;5052108;28;20176;-73
2021/01/09 10:59:18;;;;;;;21.13;18.05;;;3.40;99.90;;;;;;5034226;28;20282;-73
2021/01/09 11:01:44;;;;;;;21.45;18.77;;;3.40;99.90;;;;;;5052059;28;20164;-73
2021/01/09 11:04:10;;;;;;;22.25;19.38;;;3.40;99.90;;;;;;5052071;28;20218;-74
2021/01/09 11:06:35;;;;;;;22.10;18.40;;;3.50;99.90;;;;;;5051911;28;20205;-73
2021/01/09 11:09:02;;;;;;;22.85;19.70;;;3.50;99.90;;;;;;5034062;28;20717;-73
2021/01/09 11:11:28;;;;;;;25.52;21.55;;;3.50;99.90;;;;;;5052062;28;20626;-73
2021/01/09 11:13:53;;;;;;;24.52;21.05;;;3.50;99.90;;;;;;5033853;28;20196;-72
2021/01/09 11:16:21;;;;;;;22.52;20.10;;;3.50;99.90;;;;;;5052047;28;20255;-74
2021/01/09 11:18:47;;;;;;;25.15;20.52;;;3.50;99.90;;;;;;5051914;28;20216;-73
2021/01/09 11:21:14;;;;;;;24.50;20.20;;;3.50;99.90;;;;;;5051838;28;20182;-74
2021/01/09 11:23:45;;;;;;;24.95;21.15;;;3.50;99.90;;;;;;5051423;28;20209;-73
2021/01/09 11:26:12;;;;;;;25.73;22.10;;;3.50;99.90;;;;;;5051975;28;20160;-73
2021/01/09 11:28:39;;;;;;;23.38;20.58;;;3.50;99.90;;;;;;5051624;28;20188;-73
2021/01/09 11:31:07;;;;;;;25.77;21.38;;;3.60;99.90;;;;;;5051928;28;20218;-74
2021/01/09 11:33:33;;;;;;;25.83;22.05;;;3.50;99.90;;;;;;5033599;28;20195;-73
2021/01/09 11:36:00;;;;;;;25.70;21.52;;;3.60;99.90;;;;;;5051899;28;20168;-73
2021/01/09 11:38:25;;;;;;;23.67;20.55;;;3.60;99.90;;;;;;5033436;28;20568;-75
2021/01/09 11:40:51;;;;;;;26.50;20.98;;;3.60;99.90;;;;;;5051757;28;20172;-73
2021/01/09 11:43:17;;;;;;;26.25;20.83;;;3.60;99.90;;;;;;5033577;28;20227;-73
2021/01/09 11:45:43;;;;;;;24.67;20.08;;;3.60;99.90;;;;;;5051723;28;20168;-73
2021/01/09 11:48:09;;;;;;;23.58;20.48;;;3.60;99.90;;;;;;5051409;28;20240;-74
2021/01/09 11:50:35;;;;;;;23.58;20.35;;;3.60;99.90;;;;;;5052014;28;20179;-73
2021/01/09 11:53:01;;;;;;;23.98;20.63;;;3.60;99.90;;;;;;5051262;28;20195;-73
2021/01/09 11:55:26;;;;;;;23.88;20.55;;;3.60;99.90;;;;;;5051624;28;20394;-73
2021/01/09 11:57:52;;;;;;;25.23;20.83;;;3.60;99.90;;;;;;5052905;28;20282;-73
2021/01/09 12:00:20;;;;;;;24.95;20.30;;;3.60;99.90;;;;;;5055428;28;20210;-73
2021/01/09 12:02:45;;;;;;;24.90;21.15;;;3.60;99.90;;;;;;5037277;28;20281;-73
2021/01/09 12:05:11;;;;;;;25.38;20.98;;;3.60;99.90;;;;;;5055377;28;20167;-73
2021/01/09 12:07:37;;;;;;;26.10;21.83;;;3.60;99.90;;;;;;5037444;28;20180;-73
2021/01/09 12:10:07;;;;;;;26.00;21.90;;;3.60;99.90;;;;;;5036727;28;20232;-73
2021/01/09 12:12:33;;;;;;;23.40;20.25;;;3.60;99.90;;;;;;5055176;28;20222;-73
2021/01/09 12:14:59;;;;;;;24.27;21.70;;;3.60;99.90;;;;;;5037190;28;20249;-73
2021/01/09 12:17:25;;;;;;;23.77;21.25;;;3.60;99.90;;;;;;5055122;28;20568;-73
2021/01/09 12:19:51;;;;;;;24.48;20.10;;;3.60;99.90;;;;;;5055016;28;20203;-73
2021/01/09 12:22:16;;;;;;;23.83;20.45;;;3.60;99.90;;;;;;5055045;28;20180;-73
2021/01/09 12:24:42;;;;;;;24.67;20.98;;;3.60;99.90;;;;;;5054786;28;20191;-73
2021/01/09 12:27:09;;;;;;;25.85;20.92;;;3.60;99.90;;;;;;5054904;28;20175;-73
2021/01/09 12:29:34;;;;;;;25.77;21.45;;;3.60;99.90;;;;;;5054704;28;20191;-73
2021/01/09 12:32:01;;;;;;;26.52;21.60;;;3.60;99.90;;;;;;5054919;28;20172;-73
2021/01/09 12:34:26;;;;;;;25.15;21.45;;;3.70;99.90;;;;;;5054866;28;20206;-73
2021/01/09 12:36:53;;;;;;;29.23;21.25;;;3.70;99.90;;;;;;5054773;28;20626;-73
2021/01/09 12:39:20;;;;;;;24.40;21.27;;;3.70;99.90;;;;;;5054408;28;20249;-73
2021/01/09 12:41:46;;;;;;;24.40;20.45;;;3.70;99.90;;;;;;5054616;28;20172;-74
2021/01/09 12:44:12;;;;;;;27.02;21.38;;;3.70;99.90;;;;;;5054442;28;20227;-73
2021/01/09 12:46:50;;;;;;;23.80;19.92;;;3.70;99.90;;;;;;5036587;28;20183;-73
2021/01/09 12:49:21;;;;;;;24.60;21.20;;;3.70;99.90;;;;;;5036776;28;20203;-73
2021/01/09 12:51:48;;;;;;;24.95;21.52;;;3.70;99.90;;;;;;5054464;28;20176;-73
2021/01/09 12:54:14;;;;;;;23.38;20.83;;;3.70;99.90;;;;;;5054023;28;20196;-73
2021/01/09 12:56:41;;;;;;;23.52;20.67;;;3.80;99.90;;;;;;5054185;28;20588;-73
2021/01/09 12:59:08;;;;;;;24.83;21.63;;;3.90;99.90;;;;;;5036392;28;20326;-73
2021/01/09 13:01:36;;;;;;;26.88;22.40;;;3.90;99.90;;;;;;5054175;28;20168;-73
2021/01/09 13:04:02;;;;;;;25.40;22.33;;;4.00;99.90;;;;;;5036295;28;20788;-73
2021/01/09 13:06:34;;;;;;;24.85;21.27;;;4.10;99.90;;;;;;5054119;28;20243;-73
2021/01/09 13:09:00;;;;;;;25.20;21.33;;;4.10;99.90;;;;;;5053346;28;20274;-73
2021/01/09 13:11:26;;;;;;;26.45;21.55;;;4.20;99.90;;;;;;5054069;28;20652;-73
2021/01/09 13:13:51;;;;;;;23.20;19.23;;;4.10;99.90;;;;;;5036097;28;20226;-73
2021/01/09 13:16:18;;;;;;;24.33;21.58;;;4.10;99.90;;;;;;5036193;28;20181;-73
2021/01/09 13:18:45;;;;;;;23.33;20.83;;;4.10;99.90;;;;;;5053934;28;20195;-73
2021/01/09 13:21:11;;;;;;;25.35;21.15;;;4.10;99.90;;;;;;5036115;28;20180;-74
2021/01/09 13:23:40;;;;;;;23.10;19.08;;;4.10;99.90;;;;;;5035409;28;20220;-74
2021/01/09 13:26:06;;;;;;;24.63;20.88;;;4.00;99.90;;;;;;5035833;28;20638;-73
2021/01/09 13:28:32;;;;;;;23.73;20.58;;;4.00;99.90;;;;;;5053668;28;20672;-73
2021/01/09 13:30:58;;;;;;;22.02;19.02;;;4.00;99.90;;;;;;5053833;28;20215;-74
2021/01/09 13:33:25;;;;;;;22.67;18.73;;;4.00;99.90;;;;;;5053636;28;20233;-73
2021/01/09 13:35:51;;;;;;;21.10;18.80;;;4.00;99.90;;;;;;5053694;28;20219;-74
2021/01/09 13:38:17;;;;;;;17.25;15.45;;;4.00;99.90;;;;;;5035117;28;20199;-74
2021/01/09 13:40:44;;;;;;;17.92;15.27;;;4.00;99.90;;;;;;5035827;28;20180;-73
2021/01/09 13:43:10;;;;;;;17.70;15.80;;;4.00;99.90;;;;;;5053304;28;20711;-73
2021/01/09 13:45:36;;;;;;;18.30;16.02;;;4.00;99.90;;;;;;5053791;28;20163;-74
2021/01/09 13:48:02;;;;;;;18.40;15.40;;;4.00;99.90;;;;;;5035385;28;20196;-73
2021/01/09 13:50:28;;;;;;;18.73;15.88;;;3.90;99.90;;;;;;5035485;28;20196;-73
2021/01/09 13:52:53;;;;;;;17.88;15.98;;;3.90;99.90;;;;;;5053205;28;20228;-73
2021/01/09 13:55:20;;;;;;;17.73;15.82;;;3.90;99.90;;;;;;5052868;28;20551;-73
2021/01/09 13:57:46;;;;;;;17.85;15.23;;;4.00;99.90;;;;;;5053237;28;20263;-74
2021/01/09 14:00:14;;;;;;;17.25;14.95;;;4.00;99.90;;;;;;5053228;28;20172;-74
2021/01/09 14:02:42;;;;;;;17.48;14.90;;;4.00;99.90;;;;;;5053189;28;20215;-73
2021/01/09 14:05:08;;;;;;;19.15;15.68;;;4.00;99.90;;;;;;5053089;28;20174;-73
2021/01/09 14:07:34;;;;;;;15.13;12.93;;;4.00;99.90;;;;;;5035097;28;20175;-73
2021/01/09 14:10:00;;;;;;;14.27;12.35;;;4.00;99.90;;;;;;5052505;28;20717;-73
2021/01/09 14:12:26;;;;;;;13.57;12.18;;;3.90;99.90;;;;;;5053081;28;20164;-73
2021/01/09 14:14:52;;;;;;;15.02;13.05;;;3.90;99.90;;;;;;5052785;28;20728;-73
2021/01/09 14:17:18;;;;;;;14.65;13.07;;;3.90;99.90;;;;;;5052971;28;20168;-73
2021/01/09 14:19:43;;;;;;;14.32;12.60;;;3.90;99.90;;;;;;5034376;28;20195;-73
2021/01/09 14:22:09;;;;;;;12.93;11.38;;;3.90;99.90;;;;;;5052238;28;20172;-73
2021/01/09 14:24:35;;;;;;;13.73;11.65;;;3.80;99.90;;;;;;5034488;28;20519;-73
2021/01/09 14:27:04;;;;;;;14.20;12.63;;;3.80;99.90;;;;;;5052745;28;20195;-73
2021/01/09 14:29:30;;;;;;;14.10;11.80;;;3.90;99.90;;;;;;5052418;28;20200;-74
2021/01/09 14:31:56;;;;;;;12.48;10.65;;;3.90;99.90;;;;;;5034773;28;20172;-74
2021/01/09 14:34:21;;;;;;;11.88;10.57;;;3.90;99.90;;;;;;5052559;28;20194;-73
2021/01/09 14:36:47;;;;;;;13.43;11.15;;;3.90;99.90;;;;;;5034379;28;20176;-73
2021/01/09 14:39:13;;;;;;;14.27;12.77;;;3.90;99.90;;;;;;5052121;28;20196;-73
2021/01/09 14:41:49;;;;;;;12.45;10.85;;;3.90;99.90;;;;;;5052410;28;20172;-74
2021/01/09 14:44:15;;;;;;;13.93;12.23;;;3.90;99.90;;;;;;5052345;28;20207;-73
2021/01/09 14:46:41;;;;;;;12.27;10.98;;;3.90;99.90;;;;;;5034377;28;20176;-73
2021/01/09 14:49:08;;;;;;;15.10;12.82;;;3.80;99.90;;;;;;5052327;28;20223;-73
2021/01/09 14:51:34;;;;;;;12.65;11.20;;;3.80;99.90;;;;;;5034222;28;20242;-73
2021/01/09 14:54:00;;;;;;;13.38;11.52;;;3.70;99.90;;;;;;5051927;28;20196;-73
2021/01/09 14:56:26;;;;;;;14.98;12.15;;;3.60;99.90;;;;;;5052159;28;20259;-73
2021/01/09 14:58:53;;;;;;;13.27;11.73;;;3.60;99.90;;;;;;5052241;28;20278;-73
2021/01/09 15:01:21;;;;;;;13.77;12.02;;;3.50;99.90;;;;;;5052111;28;20168;-73
2021/01/09 15:03:51;;;;;;;14.32;11.07;;;3.50;99.90;;;;;;5051923;28;20257;-73
2021/01/09 15:06:22;;;;;;;13.80;12.27;;;3.40;99.90;;;;;;5051941;28;20638;-73
2021/01/09 15:08:49;;;;;;;14.90;13.10;;;3.40;99.90;;;;;;5033768;28;20796;-73
2021/01/09 15:11:14;;;;;;;14.52;12.85;;;3.10;99.90;;;;;;5052044;28;20201;-73
2021/01/09 15:13:40;;;;;;;14.50;12.90;;;3.30;99.90;;;;;;5052032;28;20605;-73
2021/01/09 15:16:06;;;;;;;15.60;13.38;;;3.30;99.90;;;;;;5051976;28;20665;-73
2021/01/09 15:21:30;;;;;;;14.70;13.20;;;3.10;99.90;;;;;;5052092;28;20175;-73
2021/01/09 15:23:56;;;;;;;13.50;11.80;;;3.10;99.90;;;;;;5033715;28;20230;-73
2021/01/09 15:26:22;;;;;;;15.23;13.52;;;3.10;99.90;;;;;;5034029;28;20569;-73
2021/01/09 15:28:47;;;;;;;14.50;12.63;;;3.00;99.90;;;;;;5051842;28;20684;-73
2021/01/09 15:31:13;;;;;;;14.82;12.90;;;3.00;99.90;;;;;;5052103;28;20562;-73
2021/01/09 15:33:40;;;;;;;16.05;13.82;;;3.00;99.90;;;;;;5055843;28;20245;-73
2021/01/09 15:36:07;;;;;;;16.75;13.30;;;3.00;99.90;;;;;;5038069;28;20176;-74
2021/01/09 15:38:33;;;;;;;14.60;12.63;;;2.90;99.90;;;;;;5055349;28;20580;-74
2021/01/09 15:40:58;;;;;;;15.98;12.98;;;2.90;99.90;;;;;;5055913;28;20175;-75
2021/01/09 15:43:24;;;;;;;14.55;12.80;;;2.90;99.90;;;;;;5037678;28;20269;-74
2021/01/09 15:46:00;;;;;;;13.05;11.55;;;2.80;99.90;;;;;;5055659;28;20172;-75
2021/01/09 15:48:26;;;;;;;15.48;13.70;;;2.70;99.90;;;;;;5037744;28;20187;-74
2021/01/09 15:51:00;;;;;;;16.58;13.57;;;2.70;99.90;;;;;;5055710;28;20290;-74
2021/01/09 15:53:26;;;;;;;19.63;15.05;;;2.70;99.90;;;;;;5055126;28;20553;-74
2021/01/09 15:55:59;;;;;;;16.02;14.32;;;2.60;99.90;;;;;;5055624;28;20164;-74
2021/01/09 15:58:27;;;;;;;17.48;14.57;;;2.60;99.90;;;;;;5055400;28;20649;-75
2021/01/09 16:00:56;;;;;;;16.25;14.55;;;2.60;99.90;;;;;;5055359;28;20168;-75
2021/01/09 16:03:23;;;;;;;17.92;15.20;;;2.60;99.90;;;;;;5037338;28;20219;-74
2021/01/09 16:05:49;;;;;;;17.95;15.40;;;2.70;99.90;;;;;;5055480;28;20172;-74
2021/01/09 16:08:15;;;;;;;17.33;15.25;;;2.50;99.90;;;;;;5054760;28;20238;-75
2021/01/09 16:10:40;;;;;;;20.08;16.63;;;2.60;99.90;;;;;;5055405;28;20191;-75
2021/01/09 16:13:06;;;;;;;19.88;15.55;;;;;;;;;;5055483;28;20198;-74
2021/01/09 16:15:33;;;;;;;18.25;14.90;;;2.50;99.90;;;;;;5054883;28;20286;-77
2021/01/09 16:17:58;;;;;;;17.23;14.23;;;2.60;99.90;;;;;;5037151;28;20294;-74
2021/01/09 16:20:24;;;;;;;16.95;14.07;;;2.40;99.90;;;;;;5054608;28;20711;-74
2021/01/09 16:22:50;;;;;;;17.90;14.70;;;2.40;99.90;;;;;;5031320;28;20258;-74
2021/01/09 16:25:15;;;;;;;18.52;15.07;;;2.40;99.90;;;;;;5027020;28;20176;-76
2021/01/09 16:27:41;;;;;;;17.48;15.48;;;2.40;99.90;;;;;;5054596;28;20172;-74
2021/01/09 16:30:07;;;;;;;15.95;14.20;;;2.40;99.90;;;;;;5035696;28;20277;-74
2021/01/09 16:32:35;;;;;;;17.10;14.63;;;2.40;99.90;;;;;;5053235;28;20164;-74
2021/01/09 16:35:00;;;;;;;16.02;14.30;;;2.40;99.90;;;;;;5054332;28;20194;-74
2021/01/09 16:37:28;;;;;;;16.48;14.40;;;2.40;99.90;;;;;;5036827;28;20175;-75
2021/01/09 16:39:55;;;;;;;16.42;14.60;;;2.30;99.90;;;;;;5054222;28;20202;-74
2021/01/09 16:42:21;;;;;;;18.88;16.42;;;2.30;99.90;;;;;;5054488;28;20239;-74
2021/01/09 16:44:46;;;;;;;20.58;17.95;;;2.20;99.90;;;;;;5053737;28;20203;-74
2021/01/09 16:47:12;;;;;;;20.05;16.35;;;;;;;;;;5054820;28;20519;-73
2021/01/09 16:49:38;;;;;;;24.35;18.30;;;2.00;99.90;;;;;;5036557;28;20204;-74
2021/01/09 16:52:04;;;;;;;22.00;18.90;;;2.20;99.90;;;;;;5036770;28;20183;-74